createdAt,value
2022-12-13T08:32:52.244Z,45.89
2022-12-13T08:33:05.244Z,45.63
2022-12-13T08:33:14.638Z,45.43
2022-12-13T08:33:26.197Z,45.28
2022-12-13T08:33:37.477Z,45.21
2022-12-13T08:33:49.021Z,45.17
2022-12-13T08:34:00.313Z,45.15
2022-12-13T08:34:11.867Z,45.10
2022-12-13T08:34:23.163Z,45.10
2022-12-13T08:34:34.734Z,45.09
2022-12-13T08:34:46.031Z,45.08
2022-12-13T08:34:57.562Z,45.08
2022-12-13T08:35:08.847Z,45.09
2022-12-13T08:35:20.402Z,45.04
2022-12-13T08:35:34.282Z,45.03
2022-12-13T08:35:41.924Z,45.12
2022-12-13T08:35:53.205Z,45.09
2022-12-13T08:36:04.759Z,45.02
2022-12-13T08:36:16.053Z,45.00
2022-12-13T08:36:27.598Z,44.97
2022-12-13T08:36:38.874Z,44.96
2022-12-13T08:36:50.412Z,44.92
2022-12-13T08:37:03.682Z,44.95
2022-12-13T08:37:13.262Z,45.01
2022-12-13T08:37:24.810Z,44.95
2022-12-13T08:37:36.099Z,44.91
2022-12-13T08:37:47.637Z,44.92
2022-12-13T08:37:58.978Z,44.90
2022-12-13T08:38:10.284Z,44.97
2022-12-13T08:38:22.889Z,44.90
2022-12-13T08:38:32.292Z,44.84
2022-12-13T08:38:43.836Z,44.87
2022-12-13T08:38:55.129Z,44.83
2022-12-13T08:39:06.671Z,44.84
2022-12-13T08:39:17.948Z,44.82
2022-12-13T08:39:29.481Z,44.82
2022-12-13T08:39:40.762Z,44.83
2022-12-13T08:39:52.301Z,44.80
2022-12-13T08:40:03.574Z,44.82
2022-12-13T08:40:15.117Z,44.81
2022-12-13T08:40:26.428Z,44.79
2022-12-13T08:40:37.988Z,44.79
2022-12-13T08:40:51.538Z,44.79
2022-12-13T08:41:00.862Z,44.86
2022-12-13T08:41:12.417Z,44.82
2022-12-13T08:41:23.701Z,44.80
2022-12-13T08:41:39.102Z,44.77
2022-12-13T08:41:46.515Z,44.82
2022-12-13T08:41:57.799Z,44.78
2022-12-13T08:42:16.040Z,44.74
2022-12-13T08:42:21.276Z,44.86
2022-12-13T08:42:32.620Z,44.78
2022-12-13T08:42:44.177Z,44.77
2022-12-13T08:42:55.463Z,44.74
2022-12-13T08:43:07.063Z,44.72
2022-12-13T08:43:18.768Z,44.71
2022-12-13T08:43:30.278Z,44.86
2022-12-13T08:43:41.564Z,44.79
2022-12-13T08:43:53.115Z,44.75
2022-12-13T08:44:04.415Z,44.75
2022-12-13T08:44:15.965Z,44.70
2022-12-13T08:44:27.248Z,44.70
2022-12-13T08:44:38.787Z,44.70
2022-12-13T08:44:49.291Z,44.65
2022-12-13T08:45:00.865Z,44.69
2022-12-13T08:45:12.138Z,44.67
2022-12-13T08:45:23.685Z,44.66
2022-12-13T08:45:34.957Z,44.66
2022-12-13T08:45:46.515Z,44.64
2022-12-13T08:46:01.393Z,44.65
2022-12-13T08:46:08.575Z,44.77
2022-12-13T08:46:19.917Z,44.72
2022-12-13T08:46:31.547Z,44.67
2022-12-13T08:46:42.953Z,44.66
2022-12-13T08:46:54.570Z,44.66
2022-12-13T08:47:05.857Z,44.65
2022-12-13T08:47:23.500Z,44.66
2022-12-13T08:47:29.323Z,44.70
2022-12-13T08:47:42.124Z,44.67
2022-12-13T08:47:51.404Z,44.74
2022-12-13T08:48:02.948Z,44.67
2022-12-13T08:48:14.295Z,44.64
2022-12-13T08:48:25.844Z,44.64
2022-12-13T08:48:44.282Z,44.64
2022-12-13T08:48:49.349Z,44.79
2022-12-13T08:49:00.792Z,44.74
2022-12-13T08:49:12.507Z,44.66
2022-12-13T08:49:24.096Z,44.63
2022-12-13T08:49:35.704Z,44.60
2022-12-13T08:49:46.988Z,44.62
2022-12-13T08:50:01.933Z,44.59
2022-12-13T08:50:10.340Z,44.68
2022-12-13T08:50:21.622Z,44.65
2022-12-13T08:50:33.161Z,44.60
2022-12-13T08:50:44.440Z,44.61
2022-12-13T08:50:55.988Z,44.57
2022-12-13T08:51:07.287Z,44.58
2022-12-13T08:51:24.648Z,44.59
2022-12-13T08:51:35.651Z,44.68
2022-12-13T08:51:42.693Z,44.70
2022-12-13T08:51:53.977Z,44.64
2022-12-13T08:52:05.520Z,44.61
2022-12-13T08:52:16.865Z,44.61
2022-12-13T08:52:28.410Z,44.58
2022-12-13T08:52:42.452Z,44.57
2022-12-13T08:52:49.689Z,44.67
2022-12-13T08:53:01.011Z,44.61
2022-12-13T08:53:28.565Z,44.58
2022-12-13T08:53:28.984Z,44.67
2022-12-13T08:53:40.804Z,44.70
2022-12-13T08:53:48.322Z,44.70
2022-12-13T08:54:10.597Z,44.65
2022-12-13T08:54:11.695Z,44.76
2022-12-13T08:54:31.660Z,44.66
2022-12-13T08:54:34.971Z,44.76
2022-12-13T08:54:46.265Z,44.67
2022-12-13T08:54:57.814Z,44.60
2022-12-13T08:55:09.139Z,44.58
2022-12-13T08:55:31.355Z,44.56
2022-12-13T08:55:32.750Z,44.65
2022-12-13T08:55:44.053Z,44.58
2022-12-13T08:55:55.594Z,44.55
2022-12-13T08:56:06.875Z,44.57
2022-12-13T08:56:18.422Z,44.57
2022-12-13T08:56:29.714Z,44.53
2022-12-13T08:56:43.781Z,44.52
2022-12-13T08:56:53.059Z,44.54
2022-12-13T08:57:04.588Z,44.52
2022-12-13T08:57:15.872Z,44.52
2022-12-13T08:57:27.423Z,44.52
2022-12-13T08:57:38.723Z,44.50
2022-12-13T08:57:50.261Z,44.50
2022-12-13T08:58:01.547Z,44.50
2022-12-13T08:58:13.089Z,44.51
2022-12-13T08:58:24.365Z,44.52
2022-12-13T08:58:35.950Z,44.49
2022-12-13T08:58:47.242Z,44.48
2022-12-13T08:58:58.773Z,44.51
2022-12-13T08:59:10.057Z,44.49
2022-12-13T08:59:21.600Z,44.46
2022-12-13T08:59:32.883Z,44.52
2022-12-13T08:59:44.426Z,44.46
2022-12-13T08:59:55.723Z,44.48
2022-12-13T09:00:07.266Z,44.48
2022-12-13T09:00:18.562Z,44.48
2022-12-13T09:00:35.683Z,44.48
2022-12-13T09:00:42.096Z,44.60
2022-12-13T09:00:53.429Z,44.51
2022-12-13T09:01:05.099Z,44.50
2022-12-13T09:01:16.435Z,44.49
2022-12-13T09:01:28.019Z,44.46
2022-12-13T09:01:39.422Z,44.48
2022-12-13T09:01:53.681Z,44.46
2022-12-13T09:02:05.011Z,44.49
2022-12-13T09:02:12.504Z,44.58
2022-12-13T09:02:23.863Z,44.51
2022-12-13T09:02:38.164Z,44.48
2022-12-13T09:02:45.924Z,44.54
2022-12-13T09:02:57.263Z,44.48
2022-12-13T09:03:17.642Z,44.49
2022-12-13T09:03:21.085Z,44.58
2022-12-13T09:03:32.834Z,44.45
2022-12-13T09:03:44.158Z,44.45
2022-12-13T09:03:55.716Z,44.44
2022-12-13T09:04:06.990Z,44.48
2022-12-13T09:04:18.536Z,44.47
2022-12-13T09:04:31.607Z,44.57
2022-12-13T09:04:41.369Z,44.51
2022-12-13T09:04:52.912Z,44.48
2022-12-13T09:05:04.188Z,44.45
2022-12-13T09:05:32.253Z,44.47
2022-12-13T09:05:34.022Z,44.56
2022-12-13T09:05:39.579Z,44.59
2022-12-13T09:05:50.856Z,44.52
2022-12-13T09:06:02.400Z,44.44
2022-12-13T09:06:13.694Z,44.45
2022-12-13T09:06:25.230Z,44.43
2022-12-13T09:06:36.521Z,44.46
2022-12-13T09:06:48.069Z,44.45
2022-12-13T09:07:01.403Z,44.47
2022-12-13T09:07:11.156Z,44.53
2022-12-13T09:07:22.702Z,44.45
2022-12-13T09:07:33.973Z,44.44
2022-12-13T09:07:45.509Z,44.43
2022-12-13T09:07:56.811Z,44.42
2022-12-13T09:08:23.438Z,44.39
2022-12-13T09:08:24.287Z,44.53
2022-12-13T09:08:35.179Z,44.56
2022-12-13T09:08:42.421Z,44.53
2022-12-13T09:08:53.906Z,44.47
2022-12-13T09:09:05.480Z,44.47
2022-12-13T09:09:16.777Z,44.45
2022-12-13T09:09:28.320Z,44.39
2022-12-13T09:09:39.602Z,44.41
2022-12-13T09:09:54.864Z,44.41
2022-12-13T09:10:25.937Z,44.48
2022-12-13T09:10:26.606Z,44.57
2022-12-13T09:10:27.771Z,44.58
2022-12-13T09:10:38.019Z,44.47
2022-12-13T09:10:47.879Z,44.50
2022-12-13T09:10:59.769Z,44.44
2022-12-13T09:11:33.139Z,44.50
2022-12-13T09:11:34.827Z,44.38
2022-12-13T09:11:40.090Z,44.55
2022-12-13T09:11:47.223Z,44.57
2022-12-13T09:11:59.515Z,44.50
2022-12-13T09:12:10.811Z,44.49
2022-12-13T09:12:29.974Z,44.52
2022-12-13T09:12:32.356Z,44.59
2022-12-13T09:12:43.646Z,44.51
2022-12-13T09:13:01.675Z,44.43
2022-12-13T09:13:11.767Z,44.52
2022-12-13T09:13:32.060Z,44.55
2022-12-13T09:13:32.219Z,44.54
2022-12-13T09:13:43.854Z,44.49
2022-12-13T09:13:53.159Z,44.48
2022-12-13T09:14:05.135Z,44.61
2022-12-13T09:14:16.414Z,44.49
2022-12-13T09:14:34.274Z,44.57
2022-12-13T09:14:45.365Z,44.57
2022-12-13T09:14:52.185Z,44.55
2022-12-13T09:15:04.108Z,44.56
2022-12-13T09:15:22.914Z,44.51
2022-12-13T09:15:27.352Z,44.62
2022-12-13T09:15:39.259Z,44.58
2022-12-13T09:15:51.245Z,44.58
2022-12-13T09:16:02.756Z,44.50
2022-12-13T09:16:23.368Z,44.43
2022-12-13T09:16:26.395Z,44.51
2022-12-13T09:16:37.854Z,44.49
2022-12-13T09:16:50.530Z,44.41
2022-12-13T09:17:03.056Z,44.40
2022-12-13T09:17:23.669Z,44.50
2022-12-13T09:17:24.186Z,44.51
2022-12-13T09:17:36.711Z,44.49
2022-12-13T09:17:44.632Z,44.52
2022-12-13T09:17:56.471Z,44.55
2022-12-13T09:18:08.393Z,44.55
2022-12-13T09:18:23.900Z,44.53
2022-12-13T09:18:36.637Z,44.53
2022-12-13T09:18:43.826Z,44.56
2022-12-13T09:18:55.962Z,44.47
2022-12-13T09:19:06.680Z,44.45
2022-12-13T09:19:25.942Z,44.58
2022-12-13T09:19:29.373Z,44.55
2022-12-13T09:19:41.284Z,44.55
2022-12-13T09:19:58.142Z,44.45
2022-12-13T09:20:28.352Z,44.54
2022-12-13T09:20:29.092Z,44.55
2022-12-13T09:20:30.105Z,44.54
2022-12-13T09:20:41.245Z,44.43
2022-12-13T09:20:50.950Z,44.51
2022-12-13T09:21:11.331Z,44.41
2022-12-13T09:21:14.556Z,44.49
2022-12-13T09:21:31.385Z,44.52
2022-12-13T09:21:38.340Z,44.54
2022-12-13T09:21:50.186Z,44.53
2022-12-13T09:22:02.311Z,44.42
2022-12-13T09:22:14.470Z,44.45
2022-12-13T09:22:34.015Z,44.47
2022-12-13T09:22:35.915Z,44.58
2022-12-13T09:22:47.212Z,44.47
2022-12-13T09:23:01.583Z,44.38
2022-12-13T09:23:14.055Z,44.43
2022-12-13T09:23:23.374Z,44.44
2022-12-13T09:23:35.632Z,44.44
2022-12-13T09:23:45.746Z,44.46
2022-12-13T09:23:55.489Z,44.43
2022-12-13T09:24:07.414Z,44.55
2022-12-13T09:24:23.937Z,44.50
2022-12-13T09:24:36.675Z,44.52
2022-12-13T09:24:43.242Z,44.50
2022-12-13T09:24:55.172Z,44.50
2022-12-13T09:25:07.088Z,44.49
2022-12-13T09:25:23.986Z,44.50
2022-12-13T09:25:36.783Z,44.51
2022-12-13T09:25:47.212Z,44.48
2022-12-13T09:25:54.799Z,44.51
2022-12-13T09:26:06.443Z,44.42
2022-12-13T09:26:17.996Z,44.35
2022-12-13T09:26:29.935Z,44.45
2022-12-13T09:26:41.842Z,44.45
2022-12-13T09:26:57.188Z,44.40
2022-12-13T09:27:09.170Z,44.50
2022-12-13T09:27:27.768Z,44.49
2022-12-13T09:27:28.881Z,44.49
2022-12-13T09:27:40.565Z,44.35
2022-12-13T09:27:51.864Z,44.34
2022-12-13T09:28:03.411Z,44.32
2022-12-13T09:28:14.702Z,44.34
2022-12-13T09:28:26.245Z,44.28
2022-12-13T09:28:37.531Z,44.30
2022-12-13T09:28:49.076Z,44.32
2022-12-13T09:29:10.917Z,44.29
2022-12-13T09:29:12.285Z,44.44
2022-12-13T09:29:23.615Z,44.38
2022-12-13T09:29:35.170Z,44.31
2022-12-13T09:29:46.455Z,44.28
2022-12-13T09:29:57.988Z,44.25
2022-12-13T09:30:09.264Z,44.29
2022-12-13T09:30:20.867Z,44.28
2022-12-13T09:30:32.273Z,44.27
2022-12-13T09:30:43.834Z,44.28
2022-12-13T09:30:55.129Z,44.26
2022-12-13T09:31:06.728Z,44.25
2022-12-13T09:31:18.209Z,44.24
2022-12-13T09:31:29.863Z,44.26
2022-12-13T09:31:41.477Z,44.26
2022-12-13T09:31:53.642Z,44.26
2022-12-13T09:32:05.338Z,44.19
2022-12-13T09:32:16.724Z,44.24
2022-12-13T09:32:28.271Z,44.23
2022-12-13T09:32:39.557Z,44.22
2022-12-13T09:32:51.101Z,44.22
2022-12-13T09:33:28.662Z,44.41
2022-12-13T09:33:29.700Z,44.23
2022-12-13T09:33:29.823Z,44.39
2022-12-13T09:33:40.946Z,44.40
2022-12-13T09:33:48.841Z,44.38
2022-12-13T09:34:00.163Z,44.30
2022-12-13T09:34:11.852Z,44.27
2022-12-13T09:34:23.296Z,44.27
2022-12-13T09:34:35.121Z,44.24
2022-12-13T09:34:46.555Z,44.25
2022-12-13T09:34:58.244Z,44.24
2022-12-13T09:35:09.560Z,44.23
2022-12-13T09:35:21.103Z,44.25
2022-12-13T09:35:32.394Z,44.23
2022-12-13T09:35:43.939Z,44.22
2022-12-13T09:35:55.235Z,44.24
2022-12-13T09:36:06.790Z,44.20
2022-12-13T09:36:18.082Z,44.21
2022-12-13T09:36:29.631Z,44.22
2022-12-13T09:36:40.911Z,44.21
2022-12-13T09:36:52.453Z,44.20
2022-12-13T09:37:03.755Z,44.20
2022-12-13T09:37:15.300Z,44.22
2022-12-13T09:37:27.230Z,44.31
2022-12-13T09:37:44.149Z,44.26
2022-12-13T09:37:50.443Z,44.40
2022-12-13T09:38:01.737Z,44.33
2022-12-13T09:38:13.283Z,44.24
2022-12-13T09:38:24.565Z,44.23
2022-12-13T09:38:36.118Z,44.22
2022-12-13T09:38:47.435Z,44.23
2022-12-13T09:38:58.974Z,44.20
2022-12-13T09:39:10.262Z,44.20
2022-12-13T09:39:21.805Z,44.19
2022-12-13T09:39:33.097Z,44.21
2022-12-13T09:39:44.662Z,44.20
2022-12-13T09:39:55.953Z,44.23
2022-12-13T09:40:16.439Z,44.20
2022-12-13T09:40:25.796Z,44.29
2022-12-13T09:40:31.345Z,44.36
2022-12-13T09:40:43.269Z,44.36
2022-12-13T09:40:58.337Z,44.29
2022-12-13T09:41:05.878Z,44.41
2022-12-13T09:41:19.552Z,44.38
2022-12-13T09:41:29.695Z,44.29
2022-12-13T09:41:41.531Z,44.27
2022-12-13T09:41:52.820Z,44.25
2022-12-13T09:42:10.172Z,44.42
2022-12-13T09:42:16.666Z,44.39
2022-12-13T09:42:30.619Z,44.37
2022-12-13T09:42:38.147Z,44.33
2022-12-13T09:42:49.503Z,44.34
2022-12-13T09:43:21.853Z,44.29
2022-12-13T09:43:22.999Z,44.43
2022-12-13T09:43:32.213Z,44.41
2022-12-13T09:43:42.453Z,44.41
2022-12-13T09:43:48.905Z,44.40
2022-12-13T09:44:01.301Z,44.24
2022-12-13T09:44:31.537Z,44.19
2022-12-13T09:44:33.023Z,44.30
2022-12-13T09:44:46.469Z,44.37
2022-12-13T09:45:01.025Z,44.37
2022-12-13T09:45:03.255Z,44.38
2022-12-13T09:45:21.859Z,44.31
2022-12-13T09:45:32.082Z,44.38
2022-12-13T09:45:34.840Z,44.37
2022-12-13T09:45:46.858Z,44.37
2022-12-13T09:46:01.230Z,44.29
2022-12-13T09:46:22.119Z,44.39
2022-12-13T09:46:23.154Z,44.38
2022-12-13T09:46:34.893Z,44.34
2022-12-13T09:46:45.004Z,44.35
2022-12-13T09:46:54.688Z,44.31
2022-12-13T09:47:13.399Z,44.44
2022-12-13T09:47:23.197Z,44.43
2022-12-13T09:47:35.309Z,44.40
2022-12-13T09:47:47.132Z,44.38
2022-12-13T09:48:01.286Z,44.40
2022-12-13T09:48:13.370Z,44.38
2022-12-13T09:48:22.417Z,44.40
2022-12-13T09:48:34.897Z,44.39
2022-12-13T09:48:41.966Z,44.40
2022-12-13T09:49:01.429Z,44.38
2022-12-13T09:49:05.890Z,44.41
2022-12-13T09:49:22.863Z,44.39
2022-12-13T09:49:35.157Z,44.38
2022-12-13T09:49:41.672Z,44.42
2022-12-13T09:49:53.903Z,44.30
2022-12-13T09:50:04.022Z,44.29
2022-12-13T09:50:15.191Z,44.32
2022-12-13T09:50:25.154Z,44.34
2022-12-13T09:50:37.753Z,44.31
2022-12-13T09:50:58.425Z,44.43
2022-12-13T09:51:18.017Z,44.38
2022-12-13T09:51:18.321Z,44.38
2022-12-13T09:51:28.792Z,44.39
2022-12-13T09:51:44.091Z,44.41
2022-12-13T09:51:50.769Z,44.38
2022-12-13T09:52:10.719Z,44.40
2022-12-13T09:52:10.840Z,44.39
2022-12-13T09:52:21.265Z,44.29
2022-12-13T09:52:33.726Z,44.31
2022-12-13T09:52:43.025Z,44.33
2022-12-13T09:52:59.718Z,44.24
2022-12-13T09:53:21.840Z,44.36
2022-12-13T09:53:29.629Z,44.34
2022-12-13T09:53:33.902Z,44.34
2022-12-13T09:53:41.712Z,44.37
2022-12-13T09:53:53.421Z,44.22
2022-12-13T09:54:04.713Z,44.23
2022-12-13T09:54:16.288Z,44.19
2022-12-13T09:54:27.565Z,44.21
2022-12-13T09:54:47.734Z,44.18
2022-12-13T09:54:51.033Z,44.30
2022-12-13T09:55:06.582Z,44.23
2022-12-13T09:55:14.332Z,44.37
2022-12-13T09:55:25.608Z,44.27
2022-12-13T09:55:37.153Z,44.23
2022-12-13T09:55:48.445Z,44.19
2022-12-13T09:56:10.470Z,44.17
2022-12-13T09:56:11.926Z,44.27
2022-12-13T09:56:23.211Z,44.22
2022-12-13T09:56:34.779Z,44.20
2022-12-13T09:56:46.068Z,44.21
2022-12-13T09:56:57.604Z,44.18
2022-12-13T09:57:08.905Z,44.16
2022-12-13T09:57:31.097Z,44.19
2022-12-13T09:57:33.875Z,44.25
2022-12-13T09:57:43.467Z,44.21
2022-12-13T09:57:55.011Z,44.18
2022-12-13T09:58:06.328Z,44.16
2022-12-13T09:58:17.895Z,44.16
2022-12-13T09:58:29.176Z,44.17
2022-12-13T09:58:40.719Z,44.15
2022-12-13T09:58:52.002Z,44.17
2022-12-13T09:59:03.564Z,44.17
2022-12-13T09:59:14.850Z,44.14
2022-12-13T09:59:26.382Z,44.14
2022-12-13T09:59:37.660Z,44.13
2022-12-13T09:59:49.193Z,44.11
2022-12-13T10:00:01.279Z,44.12
2022-12-13T10:00:11.267Z,44.18
2022-12-13T10:00:22.823Z,44.17
2022-12-13T10:00:34.109Z,44.14
2022-12-13T10:00:45.696Z,44.12
2022-12-13T10:00:57.081Z,44.12
2022-12-13T10:01:08.757Z,44.11
2022-12-13T10:01:22.505Z,44.13
2022-12-13T10:01:30.874Z,44.24
2022-12-13T10:01:42.295Z,44.19
2022-12-13T10:01:53.916Z,44.15
2022-12-13T10:02:05.256Z,44.13
2022-12-13T10:02:16.907Z,44.11
2022-12-13T10:02:28.289Z,44.11
2022-12-13T10:02:39.870Z,44.13
2022-12-13T10:02:51.156Z,44.14
2022-12-13T10:03:02.705Z,44.10
2022-12-13T10:03:13.982Z,44.12
2022-12-13T10:03:25.784Z,44.11
2022-12-13T10:03:37.226Z,44.13
2022-12-13T10:03:48.772Z,44.13
2022-12-13T10:04:00.418Z,44.13
2022-12-13T10:04:11.996Z,44.12
2022-12-13T10:04:23.276Z,44.10
2022-12-13T10:04:34.817Z,44.10
2022-12-13T10:04:46.105Z,44.10
2022-12-13T10:05:01.177Z,44.13
2022-12-13T10:05:12.537Z,44.20
2022-12-13T10:05:22.734Z,44.24
2022-12-13T10:05:34.019Z,44.17
2022-12-13T10:05:45.096Z,44.31
2022-12-13T10:05:56.383Z,44.21
2022-12-13T10:06:07.923Z,44.13
2022-12-13T10:06:23.153Z,44.13
2022-12-13T10:06:30.963Z,44.29
2022-12-13T10:06:42.263Z,44.19
2022-12-13T10:06:53.815Z,44.13
2022-12-13T10:07:05.099Z,44.11
2022-12-13T10:07:16.631Z,44.13
2022-12-13T10:07:27.916Z,44.11
2022-12-13T10:07:39.470Z,44.11
2022-12-13T10:07:50.768Z,44.12
2022-12-13T10:08:02.307Z,44.11
2022-12-13T10:08:13.602Z,44.11
2022-12-13T10:08:25.151Z,44.11
2022-12-13T10:08:36.430Z,44.11
2022-12-13T10:08:47.975Z,44.10
2022-12-13T10:08:59.333Z,44.10
2022-12-13T10:09:10.881Z,44.11
2022-12-13T10:09:22.176Z,44.11
2022-12-13T10:09:33.720Z,44.08
2022-12-13T10:09:45.093Z,44.11
2022-12-13T10:09:56.648Z,44.06
2022-12-13T10:10:07.922Z,44.11
2022-12-13T10:10:19.615Z,44.07
2022-12-13T10:10:31.082Z,44.11
2022-12-13T10:10:42.643Z,44.05
2022-12-13T10:10:53.928Z,44.06
2022-12-13T10:11:05.469Z,44.07
2022-12-13T10:11:16.756Z,44.07
2022-12-13T10:11:31.301Z,44.08
2022-12-13T10:11:39.264Z,44.14
2022-12-13T10:11:51.029Z,44.11
2022-12-13T10:12:02.761Z,44.08
2022-12-13T10:12:14.036Z,44.07
2022-12-13T10:12:25.578Z,44.09
2022-12-13T10:12:36.872Z,44.07
2022-12-13T10:12:48.428Z,44.09
2022-12-13T10:12:59.702Z,44.07
2022-12-13T10:13:11.241Z,44.09
2022-12-13T10:13:22.884Z,44.05
2022-12-13T10:13:34.771Z,44.10
2022-12-13T10:13:46.046Z,44.06
2022-12-13T10:13:57.589Z,44.04
2022-12-13T10:14:08.612Z,44.15
2022-12-13T10:14:19.931Z,44.10
2022-12-13T10:14:31.472Z,44.05
2022-12-13T10:14:42.766Z,44.07
2022-12-13T10:14:54.298Z,44.04
2022-12-13T10:15:05.571Z,44.05
2022-12-13T10:15:22.260Z,44.05
2022-12-13T10:15:29.037Z,44.16
2022-12-13T10:15:40.373Z,44.12
2022-12-13T10:15:51.920Z,44.08
2022-12-13T10:16:03.249Z,44.07
2022-12-13T10:16:14.826Z,44.07
2022-12-13T10:16:26.774Z,44.17
2022-12-13T10:16:38.714Z,44.20
2022-12-13T10:16:50.103Z,44.13
2022-12-13T10:17:01.727Z,44.06
2022-12-13T10:17:13.026Z,44.10
2022-12-13T10:17:24.578Z,44.07
2022-12-13T10:17:38.266Z,44.03
2022-12-13T10:17:50.130Z,44.20
2022-12-13T10:17:57.523Z,44.21
2022-12-13T10:18:08.806Z,44.16
2022-12-13T10:18:20.341Z,44.08
2022-12-13T10:18:31.635Z,44.07
2022-12-13T10:18:43.179Z,44.08
2022-12-13T10:18:54.462Z,44.07
2022-12-13T10:19:06.034Z,44.06
2022-12-13T10:19:29.070Z,44.07
2022-12-13T10:19:30.230Z,44.23
2022-12-13T10:19:39.601Z,44.14
2022-12-13T10:19:51.138Z,44.08
2022-12-13T10:20:02.420Z,44.07
2022-12-13T10:20:13.954Z,44.01
2022-12-13T10:20:25.239Z,44.08
2022-12-13T10:20:36.786Z,44.07
2022-12-13T10:20:48.077Z,44.05
2022-12-13T10:20:59.620Z,44.08
2022-12-13T10:21:10.907Z,44.05
2022-12-13T10:21:22.476Z,44.09
2022-12-13T10:21:33.759Z,44.05
2022-12-13T10:21:45.290Z,44.04
2022-12-13T10:22:01.536Z,44.09
2022-12-13T10:22:08.492Z,44.22
2022-12-13T10:22:19.776Z,44.14
2022-12-13T10:22:31.319Z,44.08
2022-12-13T10:22:56.383Z,44.06
2022-12-13T10:23:31.197Z,44.24
2022-12-13T10:23:33.106Z,44.21
2022-12-13T10:23:59.391Z,44.23
2022-12-13T10:24:15.619Z,44.24
2022-12-13T10:24:24.169Z,44.24
2022-12-13T10:24:25.199Z,44.25
2022-12-13T10:24:30.042Z,44.25
2022-12-13T10:24:36.329Z,44.24
2022-12-13T10:24:42.424Z,44.25
2022-12-13T10:24:52.018Z,44.12
2022-12-13T10:25:03.595Z,44.10
2022-12-13T10:25:14.898Z,44.08
2022-12-13T10:25:26.454Z,44.08
2022-12-13T10:25:37.819Z,44.08
2022-12-13T10:25:50.945Z,44.06
2022-12-13T10:26:02.872Z,44.04
2022-12-13T10:26:24.041Z,44.17
2022-12-13T10:26:25.139Z,44.27
2022-12-13T10:26:36.856Z,44.09
2022-12-13T10:26:48.166Z,44.08
2022-12-13T10:26:59.727Z,44.07
2022-12-13T10:27:11.027Z,44.09
2022-12-13T10:27:22.563Z,44.06
2022-12-13T10:27:33.846Z,44.05
2022-12-13T10:27:45.398Z,44.05
2022-12-13T10:27:56.706Z,44.04
2022-12-13T10:28:08.260Z,44.04
2022-12-13T10:28:19.554Z,44.04
2022-12-13T10:28:31.097Z,44.04
2022-12-13T10:28:42.374Z,44.05
2022-12-13T10:28:53.915Z,44.04
2022-12-13T10:29:05.197Z,44.04
2022-12-13T10:29:16.734Z,44.05
2022-12-13T10:29:28.015Z,44.02
2022-12-13T10:29:39.561Z,44.03
2022-12-13T10:29:50.848Z,44.04
2022-12-13T10:30:02.387Z,44.03
2022-12-13T10:30:13.684Z,44.06
2022-12-13T10:30:28.723Z,44.03
2022-12-13T10:30:36.342Z,44.12
2022-12-13T10:30:47.630Z,44.08
2022-12-13T10:30:59.230Z,44.02
2022-12-13T10:31:10.529Z,44.02
2022-12-13T10:31:22.104Z,44.03
2022-12-13T10:31:33.503Z,44.05
2022-12-13T10:31:45.170Z,44.04
2022-12-13T10:31:56.567Z,44.02
2022-12-13T10:32:08.135Z,44.05
2022-12-13T10:32:19.425Z,44.04
2022-12-13T10:32:37.372Z,44.05
2022-12-13T10:32:42.897Z,44.12
2022-12-13T10:32:54.197Z,44.11
2022-12-13T10:33:05.744Z,44.01
2022-12-13T10:33:17.039Z,44.03
2022-12-13T10:33:28.965Z,44.21
2022-12-13T10:33:40.249Z,44.11
2022-12-13T10:33:51.780Z,44.05
2022-12-13T10:34:03.058Z,44.05
2022-12-13T10:34:14.600Z,44.04
2022-12-13T10:34:25.915Z,44.04
2022-12-13T10:34:37.469Z,44.05
2022-12-13T10:34:48.733Z,44.04
2022-12-13T10:35:00.266Z,44.05
2022-12-13T10:35:11.553Z,44.04
2022-12-13T10:35:23.118Z,44.02
2022-12-13T10:35:34.450Z,44.03
2022-12-13T10:35:46.027Z,44.04
2022-12-13T10:35:57.310Z,44.03
2022-12-13T10:36:08.940Z,44.04
2022-12-13T10:36:25.031Z,44.02
2022-12-13T10:36:32.142Z,44.22
2022-12-13T10:36:43.424Z,44.10
2022-12-13T10:36:59.807Z,44.06
2022-12-13T10:37:06.903Z,44.16
2022-12-13T10:37:18.188Z,44.07
2022-12-13T10:37:29.718Z,44.04
2022-12-13T10:37:41.003Z,44.06
2022-12-13T10:37:52.555Z,44.04
2022-12-13T10:38:03.852Z,44.02
2022-12-13T10:38:15.393Z,44.02
2022-12-13T10:38:31.564Z,44.03
2022-12-13T10:38:38.604Z,44.18
2022-12-13T10:38:49.899Z,44.10
2022-12-13T10:39:01.446Z,44.08
2022-12-13T10:39:12.726Z,44.03
2022-12-13T10:39:24.278Z,44.01
2022-12-13T10:39:35.567Z,44.02
2022-12-13T10:39:47.105Z,44.02
2022-12-13T10:39:58.395Z,43.99
2022-12-13T10:40:09.944Z,43.99
2022-12-13T10:40:32.208Z,44.06
2022-12-13T10:40:33.401Z,44.14
2022-12-13T10:40:42.979Z,44.06
2022-12-13T10:40:54.512Z,44.02
2022-12-13T10:41:05.787Z,44.01
2022-12-13T10:41:17.365Z,44.02
2022-12-13T10:41:28.641Z,44.02
2022-12-13T10:41:40.179Z,44.01
2022-12-13T10:41:51.464Z,44.01
2022-12-13T10:42:03.009Z,44.00
2022-12-13T10:42:14.282Z,44.00
2022-12-13T10:42:32.091Z,44.16
2022-12-13T10:42:38.135Z,44.18
2022-12-13T10:42:49.427Z,44.09
2022-12-13T10:43:00.966Z,44.04
2022-12-13T10:43:12.247Z,44.05
2022-12-13T10:43:24.274Z,44.00
2022-12-13T10:43:36.022Z,43.98
2022-12-13T10:43:47.300Z,44.01
2022-12-13T10:43:58.854Z,44.00
2022-12-13T10:44:10.158Z,44.01
2022-12-13T10:44:21.701Z,44.00
2022-12-13T10:44:32.993Z,44.00
2022-12-13T10:44:44.548Z,44.01
2022-12-13T10:44:55.840Z,44.03
2022-12-13T10:45:07.401Z,44.01
2022-12-13T10:45:23.523Z,44.03
2022-12-13T10:45:30.734Z,44.17
2022-12-13T10:45:42.133Z,44.10
2022-12-13T10:45:53.785Z,44.05
2022-12-13T10:46:05.198Z,44.04
2022-12-13T10:46:16.803Z,44.01
2022-12-13T10:46:28.736Z,44.11
2022-12-13T10:46:40.040Z,44.07
2022-12-13T10:46:51.575Z,44.02
2022-12-13T10:47:02.859Z,44.00
2022-12-13T10:47:17.114Z,44.02
2022-12-13T10:47:24.460Z,44.03
2022-12-13T10:47:35.749Z,44.02
2022-12-13T10:47:47.288Z,43.98
2022-12-13T10:48:03.825Z,44.03
2022-12-13T10:48:10.499Z,44.18
2022-12-13T10:48:21.776Z,44.09
2022-12-13T10:48:38.742Z,44.02
2022-12-13T10:48:45.241Z,44.11
2022-12-13T10:48:56.528Z,44.05
2022-12-13T10:49:08.071Z,44.00
2022-12-13T10:49:19.396Z,44.03
2022-12-13T10:49:30.970Z,44.01
2022-12-13T10:49:42.250Z,44.01
2022-12-13T10:49:59.502Z,44.01
2022-12-13T10:50:05.719Z,44.11
2022-12-13T10:50:17.006Z,44.04
2022-12-13T10:50:28.639Z,44.01
2022-12-13T10:50:40.012Z,44.04
2022-12-13T10:50:51.639Z,44.00
2022-12-13T10:51:03.007Z,43.99
2022-12-13T10:51:14.624Z,44.01
2022-12-13T10:51:25.916Z,44.01
2022-12-13T10:51:37.518Z,44.00
2022-12-13T10:51:48.813Z,44.02
2022-12-13T10:52:00.356Z,44.00
2022-12-13T10:52:11.631Z,44.00
2022-12-13T10:52:31.143Z,44.01
2022-12-13T10:52:35.086Z,44.10
2022-12-13T10:52:47.016Z,44.13
2022-12-13T10:52:58.299Z,44.06
2022-12-13T10:53:09.845Z,44.03
2022-12-13T10:53:22.908Z,43.99
2022-12-13T10:53:32.321Z,44.06
2022-12-13T10:53:47.365Z,44.04
2022-12-13T10:53:55.193Z,44.06
2022-12-13T10:54:06.488Z,44.02
2022-12-13T10:54:18.040Z,44.00
2022-12-13T10:54:29.354Z,44.00
2022-12-13T10:54:48.118Z,44.17
2022-12-13T10:54:53.185Z,44.17
2022-12-13T10:55:22.679Z,44.17
2022-12-13T10:55:23.201Z,44.18
2022-12-13T10:55:28.958Z,44.18
2022-12-13T10:55:40.259Z,44.09
2022-12-13T10:55:51.807Z,44.00
2022-12-13T10:56:03.091Z,44.02
2022-12-13T10:56:14.625Z,44.00
2022-12-13T10:56:26.558Z,44.11
2022-12-13T10:56:37.849Z,44.05
2022-12-13T10:56:49.434Z,44.00
2022-12-13T10:57:00.712Z,43.99
2022-12-13T10:57:12.276Z,43.98
2022-12-13T10:57:23.561Z,44.00
2022-12-13T10:57:35.121Z,43.99
2022-12-13T10:57:47.042Z,44.01
2022-12-13T10:57:58.583Z,44.02
2022-12-13T10:58:09.937Z,44.01
2022-12-13T10:58:21.489Z,43.98
2022-12-13T10:58:32.772Z,44.01
2022-12-13T10:58:44.323Z,43.98
2022-12-13T10:58:55.619Z,43.98
2022-12-13T10:59:10.601Z,43.98
2022-12-13T10:59:19.093Z,44.07
2022-12-13T10:59:30.382Z,44.03
2022-12-13T10:59:41.942Z,44.00
2022-12-13T10:59:53.222Z,44.00
2022-12-13T11:00:04.765Z,43.96
2022-12-13T11:00:16.684Z,44.08
2022-12-13T11:00:27.976Z,44.05
2022-12-13T11:00:39.528Z,43.99
2022-12-13T11:00:50.879Z,44.02
2022-12-13T11:01:02.569Z,43.98